Time,TemperatureF,DewpointF,PressureIn,WindDirection,WindDirectionDegrees,WindSpeedMPH,WindSpeedGustMPH,Humidity,HourlyPrecipIn,Conditions,Clouds,dailyrainin,SolarRadiationWatts/m^2,SoftwareType,DateUTC
2013-03-12 00:02:00,46.0,30.0,-100.00,SE,139,8.0,11.0,54,-99.99,,,-99.99,0.000000,,2013-03-12 07:02:00,
2013-03-12 00:12:00,46.0,30.0,-100.00,SE,133,8.0,11.0,54,-99.99,,,-99.99,0.000000,,2013-03-12 07:12:00,
2013-03-12 00:21:00,46.0,30.0,-100.00,SE,132,8.0,10.0,54,-99.99,,,-99.99,0.000000,,2013-03-12 07:21:00,
2013-03-12 00:32:00,46.0,30.0,-100.00,SE,132,7.0,10.0,53,-99.99,,,-99.99,0.000000,,2013-03-12 07:32:00,
2013-03-12 00:42:00,47.0,31.0,-100.00,SE,125,7.0,8.0,53,-99.99,,,-99.99,0.000000,,2013-03-12 07:42:00,
2013-03-12 00:52:00,46.0,30.0,-100.00,SE,134,7.0,9.0,53,-99.99,,,-99.99,0.000000,,2013-03-12 07:52:00,
2013-03-12 01:02:00,46.0,30.0,-100.00,SE,135,9.0,12.0,54,-99.99,,,-99.99,0.000000,,2013-03-12 08:02:00,
2013-03-12 01:12:00,45.0,30.0,-100.00,SE,136,7.0,9.0,55,-99.99,,,-99.99,0.000000,,2013-03-12 08:12:00,
2013-03-12 01:22:00,45.0,30.0,-100.00,SE,132,7.0,8.0,55,-99.99,,,-99.99,0.000000,,2013-03-12 08:22:00,
2013-03-12 01:32:00,45.0,30.0,-100.00,SE,132,7.0,8.0,55,-99.99,,,-99.99,0.000000,,2013-03-12 08:32:00,
2013-03-12 01:42:00,46.0,31.0,-100.00,SE,128,7.0,9.0,55,-99.99,,,-99.99,0.000000,,2013-03-12 08:42:00,
2013-03-12 01:52:00,45.0,30.0,-100.00,SE,135,7.0,10.0,55,-99.99,,,-99.99,0.000000,,2013-03-12 08:52:00,
2013-03-12 02:03:00,45.0,30.0,-100.00,SE,133,8.0,10.0,55,-99.99,,,-99.99,0.000000,,2013-03-12 09:03:00,
2013-03-12 02:11:00,46.0,30.0,-100.00,ESE,123,7.0,8.0,53,-99.99,,,-99.99,0.000000,,2013-03-12 09:11:00,
2013-03-12 02:22:00,46.0,30.0,-100.00,SE,124,6.0,8.0,54,-99.99,,,-99.99,0.000000,,2013-03-12 09:22:00,
2013-03-12 02:32:00,45.0,29.0,-100.00,SE,136,7.0,9.0,54,-99.99,,,-99.99,0.000000,,2013-03-12 09:32:00,
2013-03-12 02:42:00,45.0,29.0,-100.00,SE,135,7.0,11.0,53,-99.99,,,-99.99,0.000000,,2013-03-12 09:42:00,
2013-03-12 02:52:00,46.0,28.0,-100.00,SE,134,6.0,8.0,50,-99.99,,,-99.99,0.000000,,2013-03-12 09:52:00,
2013-03-12 03:02:00,46.0,27.0,-100.00,SE,139,9.0,12.0,48,-99.99,,,-99.99,0.000000,,2013-03-12 10:02:00,
2013-03-12 03:12:00,46.0,28.0,-100.00,SE,139,9.0,13.0,49,-99.99,,,-99.99,0.000000,,2013-03-12 10:12:00,
2013-03-12 03:22:00,47.0,27.0,-100.00,SE,143,8.0,12.0,46,-99.99,,,-99.99,0.000000,,2013-03-12 10:22:00,
2013-03-12 03:32:00,45.0,27.0,-100.00,SE,143,6.0,8.0,48,-99.99,,,-99.99,0.000000,,2013-03-12 10:32:00,
2013-03-12 03:42:00,48.0,26.0,-100.00,SSE,151,6.0,8.0,42,-99.99,,,-99.99,0.000000,,2013-03-12 10:42:00,
2013-03-12 03:52:00,48.0,26.0,-100.00,SE,133,6.0,8.0,42,-99.99,,,-99.99,0.000000,,2013-03-12 10:52:00,
2013-03-12 04:02:00,49.0,25.0,-100.00,SE,137,7.0,11.0,39,-99.99,,,-99.99,0.000000,,2013-03-12 11:02:00,
2013-03-12 04:12:00,47.0,25.0,-100.00,SE,139,8.0,12.0,42,-99.99,,,-99.99,0.000000,,2013-03-12 11:12:00,
2013-03-12 04:21:00,48.0,24.0,-100.00,SE,130,5.0,7.0,39,-99.99,,,-99.99,0.000000,,2013-03-12 11:21:00,
2013-03-12 04:32:00,49.0,25.0,-100.00,SE,134,6.0,11.0,38,-99.99,,,-99.99,0.000000,,2013-03-12 11:32:00,
2013-03-12 04:42:00,47.0,24.0,-100.00,SE,137,5.0,10.0,40,-99.99,,,-99.99,0.000000,,2013-03-12 11:42:00,
2013-03-12 04:52:00,49.0,23.0,-100.00,ESE,120,5.0,8.0,36,-99.99,,,-99.99,0.000000,,2013-03-12 11:52:00,
2013-03-12 05:02:00,54.0,21.0,-100.00,East,96,4.0,6.0,27,-99.99,,,-99.99,0.000000,,2013-03-12 12:02:00,
2013-03-12 05:12:00,52.0,22.0,-100.00,SE,132,4.0,7.0,31,-99.99,,,-99.99,0.000000,,2013-03-12 12:12:00,
2013-03-12 05:22:00,53.0,22.0,-100.00,East,100,4.0,9.0,29,-99.99,,,-99.99,0.000000,,2013-03-12 12:22:00,
2013-03-12 05:32:00,51.0,23.0,-100.00,SE,141,5.0,8.0,33,-99.99,,,-99.99,0.000000,,2013-03-12 12:32:00,
2013-03-12 05:42:00,51.0,24.0,-100.00,SE,132,6.0,9.0,34,-99.99,,,-99.99,0.000000,,2013-03-12 12:42:00,
2013-03-12 05:52:00,54.0,23.0,-100.00,ESE,113,4.0,6.0,30,-99.99,,,-99.99,0.000000,,2013-03-12 12:52:00,
2013-03-12 06:02:00,56.0,24.0,-100.00,ENE,76,5.0,8.0,29,-99.99,,,-99.99,0.000000,,2013-03-12 13:02:00,
2013-03-12 06:12:00,56.0,24.0,-100.00,ENE,76,5.0,8.0,29,-99.99,,,-99.99,0.000000,,2013-03-12 13:12:00,
2013-03-12 06:22:00,54.0,22.0,-100.00,SSE,166,5.0,8.0,28,-99.99,,,-99.99,0.000000,,2013-03-12 13:22:00,
2013-03-12 06:32:00,56.0,19.0,-100.00,East,80,7.0,13.0,23,-99.99,,,-99.99,0.000000,,2013-03-12 13:32:00,
2013-03-12 06:42:00,61.0,16.0,-100.00,NE,53,7.0,17.0,17,-99.99,,,-99.99,0.000000,,2013-03-12 13:42:00,
2013-03-12 06:52:00,60.0,16.0,-100.00,East,90,12.0,19.0,18,-99.99,,,-99.99,0.000000,,2013-03-12 13:52:00,
2013-03-12 07:02:00,62.0,12.0,-100.00,ENE,71,11.0,23.0,14,-99.99,,,-99.99,0.000000,,2013-03-12 14:02:00,
2013-03-12 07:12:00,63.0,11.0,-100.00,ENE,73,9.0,13.0,13,-99.99,,,-99.99,0.000000,,2013-03-12 14:12:00,
2013-03-12 07:22:00,62.0,12.0,-100.00,East,81,7.0,12.0,14,-99.99,,,-99.99,0.000000,,2013-03-12 14:22:00,
2013-03-12 07:32:00,62.0,12.0,-100.00,NE,55,6.0,11.0,14,-99.99,,,-99.99,0.000000,,2013-03-12 14:32:00,
2013-03-12 07:42:00,60.0,14.0,-100.00,East,89,5.0,11.0,16,-99.99,,,-99.99,0.000000,,2013-03-12 14:42:00,
2013-03-12 07:52:00,61.0,14.0,-100.00,ENE,59,6.0,13.0,16,-99.99,,,-99.99,0.000000,,2013-03-12 14:52:00,
2013-03-12 08:01:00,61.0,14.0,-100.00,ENE,59,6.0,13.0,16,-99.99,,,-99.99,0.000000,,2013-03-12 15:01:00,
2013-03-12 08:12:00,63.0,15.0,-100.00,ENE,65,5.0,13.0,15,-99.99,,,-99.99,0.000000,,2013-03-12 15:12:00,
2013-03-12 08:22:00,63.0,16.0,-100.00,ENE,76,7.0,15.0,16,-99.99,,,-99.99,0.000000,,2013-03-12 15:22:00,
2013-03-12 08:32:00,63.0,16.0,-100.00,ENE,77,9.0,19.0,16,-99.99,,,-99.99,0.000000,,2013-03-12 15:32:00,
2013-03-12 08:42:00,64.0,18.0,-100.00,ENE,74,9.0,17.0,17,-99.99,,,-99.99,0.000000,,2013-03-12 15:42:00,
2013-03-12 08:52:00,65.0,19.0,-100.00,ENE,77,8.0,20.0,17,-99.99,,,-99.99,0.000000,,2013-03-12 15:52:00,
2013-03-12 09:02:00,65.0,20.0,-100.00,East,85,8.0,12.0,18,-99.99,,,-99.99,0.000000,,2013-03-12 16:02:00,
2013-03-12 09:12:00,66.0,21.0,-100.00,East,86,6.0,12.0,18,-99.99,,,-99.99,0.000000,,2013-03-12 16:12:00,
2013-03-12 09:22:00,67.0,22.0,-100.00,ENE,77,6.0,10.0,18,-99.99,,,-99.99,340.600006,,2013-03-12 16:22:00,
2013-03-12 09:32:00,67.0,22.0,-100.00,ENE,73,7.0,15.0,18,-99.99,,,-99.99,406.899994,,2013-03-12 16:32:00,
2013-03-12 09:42:00,67.0,21.0,-100.00,ENE,71,8.0,15.0,17,-99.99,,,-99.99,1.450000,,2013-03-12 16:42:00,
2013-03-12 09:52:00,68.0,22.0,-100.00,East,79,9.0,18.0,17,-99.99,,,-99.99,0.000000,,2013-03-12 16:52:00,
2013-03-12 10:02:00,68.0,22.0,-100.00,ENE,72,11.0,17.0,17,-99.99,,,-99.99,0.000000,,2013-03-12 17:02:00,
2013-03-12 10:12:00,68.0,22.0,-100.00,ENE,72,11.0,17.0,17,-99.99,,,-99.99,0.000000,,2013-03-12 17:12:00,
2013-03-12 10:22:00,68.0,22.0,-100.00,ENE,74,12.0,19.0,17,-99.99,,,-99.99,0.000000,,2013-03-12 17:22:00,
2013-03-12 10:33:00,68.0,20.0,-100.00,ENE,66,11.0,19.0,16,-99.99,,,-99.99,0.000000,,2013-03-12 17:33:00,
2013-03-12 10:43:00,69.0,22.0,-100.00,ENE,74,9.0,19.0,17,-99.99,,,-99.99,0.000000,,2013-03-12 17:43:00,
2013-03-12 10:53:00,69.0,22.0,-100.00,ENE,68,8.0,17.0,17,-99.99,,,-99.99,0.000000,,2013-03-12 17:53:00,
2013-03-12 11:02:00,69.0,22.0,-100.00,ENE,68,8.0,17.0,17,-99.99,,,-99.99,0.000000,,2013-03-12 18:02:00,
2013-03-12 11:12:00,69.0,24.0,-100.00,ENE,71,13.0,24.0,18,-99.99,,,-99.99,0.000000,,2013-03-12 18:12:00,
2013-03-12 11:22:00,69.0,24.0,-100.00,ENE,68,12.0,23.0,18,-99.99,,,-99.99,0.000000,,2013-03-12 18:22:00,
2013-03-12 11:32:00,70.0,23.0,-100.00,ENE,60,11.0,25.0,17,-99.99,,,-99.99,0.000000,,2013-03-12 18:32:00,
2013-03-12 11:42:00,69.0,22.0,-100.00,ENE,67,16.0,27.0,17,-99.99,,,-99.99,0.000000,,2013-03-12 18:42:00,
2013-03-12 11:53:00,69.0,22.0,-100.00,ENE,61,13.0,26.0,17,-99.99,,,-99.99,0.000000,,2013-03-12 18:53:00,
2013-03-12 12:03:00,70.0,23.0,-100.00,NE,56,14.0,25.0,17,-99.99,,,-99.99,0.000000,,2013-03-12 19:03:00,
2013-03-12 12:12:00,70.0,23.0,-100.00,ENE,60,13.0,27.0,17,-99.99,,,-99.99,0.000000,,2013-03-12 19:12:00,
2013-03-12 12:22:00,70.0,23.0,-100.00,ENE,64,13.0,24.0,17,-99.99,,,-99.99,0.000000,,2013-03-12 19:22:00,
2013-03-12 12:32:00,70.0,23.0,-100.00,ENE,69,14.0,24.0,17,-99.99,,,-99.99,0.000000,,2013-03-12 19:32:00,
2013-03-12 12:43:00,71.0,24.0,-100.00,ENE,68,13.0,26.0,17,-99.99,,,-99.99,0.000000,,2013-03-12 19:43:00,
2013-03-12 12:52:00,71.0,24.0,-100.00,ENE,68,13.0,23.0,17,-99.99,,,-99.99,0.000000,,2013-03-12 19:52:00,
2013-03-12 13:02:00,71.0,24.0,-100.00,ENE,68,13.0,23.0,17,-99.99,,,-99.99,0.000000,,2013-03-12 20:02:00,
2013-03-12 13:22:00,72.0,25.0,-100.00,ENE,70,12.0,21.0,17,-99.99,,,-99.99,0.000000,,2013-03-12 20:22:00,
2013-03-12 13:32:00,72.0,25.0,-100.00,East,82,9.0,17.0,17,-99.99,,,-99.99,0.000000,,2013-03-12 20:32:00,
2013-03-12 13:42:00,72.0,25.0,-100.00,East,91,13.0,25.0,17,-99.99,,,-99.99,0.000000,,2013-03-12 20:42:00,
2013-03-12 13:52:00,72.0,25.0,-100.00,East,85,12.0,21.0,17,-99.99,,,-99.99,0.000000,,2013-03-12 20:52:00,
2013-03-12 14:02:00,72.0,23.0,-100.00,East,87,14.0,21.0,16,-99.99,,,-99.99,0.000000,,2013-03-12 21:02:00,
2013-03-12 14:12:00,72.0,25.0,-100.00,East,92,14.0,22.0,17,-99.99,,,-99.99,0.000000,,2013-03-12 21:12:00,
2013-03-12 14:22:00,73.0,26.0,-100.00,ENE,66,10.0,20.0,17,-99.99,,,-99.99,0.000000,,2013-03-12 21:22:00,
2013-03-12 14:32:00,73.0,26.0,-100.00,ENE,76,12.0,22.0,17,-99.99,,,-99.99,0.000000,,2013-03-12 21:32:00,
2013-03-12 14:42:00,73.0,26.0,-100.00,East,83,11.0,21.0,17,-99.99,,,-99.99,0.000000,,2013-03-12 21:42:00,
2013-03-12 14:52:00,73.0,24.0,-100.00,East,89,11.0,20.0,16,-99.99,,,-99.99,0.000000,,2013-03-12 21:52:00,
2013-03-12 15:02:00,73.0,24.0,-100.00,ENE,77,11.0,18.0,16,-99.99,,,-99.99,0.000000,,2013-03-12 22:02:00,
2013-03-12 15:12:00,72.0,23.0,-100.00,East,94,14.0,21.0,16,-99.99,,,-99.99,0.000000,,2013-03-12 22:12:00,
2013-03-12 15:22:00,72.0,23.0,-100.00,East,83,10.0,18.0,16,-99.99,,,-99.99,0.000000,,2013-03-12 22:22:00,
2013-03-12 15:32:00,74.0,26.0,-100.00,ENE,70,8.0,17.0,17,-99.99,,,-99.99,0.000000,,2013-03-12 22:32:00,
2013-03-12 15:42:00,74.0,25.0,-100.00,East,81,7.0,15.0,16,-99.99,,,-99.99,0.000000,,2013-03-12 22:42:00,
2013-03-12 15:52:00,74.0,26.0,-100.00,East,83,9.0,17.0,17,-99.99,,,-99.99,0.000000,,2013-03-12 22:52:00,
2013-03-12 16:02:00,74.0,26.0,-100.00,East,88,8.0,17.0,17,-99.99,,,-99.99,0.000000,,2013-03-12 23:02:00,
2013-03-12 16:12:00,74.0,28.0,-100.00,ENE,64,7.0,15.0,18,-99.99,,,-99.99,0.000000,,2013-03-12 23:12:00,
2013-03-12 16:22:00,74.0,28.0,-100.00,ENE,58,6.0,15.0,18,-99.99,,,-99.99,0.000000,,2013-03-12 23:22:00,
2013-03-12 16:34:00,73.0,24.0,-100.00,East,95,10.0,17.0,16,-99.99,,,-99.99,0.000000,,2013-03-12 23:34:00,
2013-03-12 16:42:00,73.0,26.0,-100.00,East,94,9.0,16.0,17,-99.99,,,-99.99,0.000000,,2013-03-12 23:42:00,
2013-03-12 16:52:00,73.0,26.0,-100.00,East,85,10.0,17.0,17,-99.99,,,-99.99,0.000000,,2013-03-12 23:52:00,
2013-03-12 17:02:00,74.0,26.0,-100.00,ENE,61,5.0,12.0,17,-99.99,,,-99.99,0.000000,,2013-03-13 00:02:00,
2013-03-12 17:12:00,74.0,26.0,-100.00,ENE,71,5.0,13.0,17,-99.99,,,-99.99,0.000000,,2013-03-13 00:12:00,
2013-03-12 17:22:00,73.0,27.0,-100.00,NE,54,7.0,13.0,18,-99.99,,,-99.99,0.000000,,2013-03-13 00:22:00,
2013-03-12 17:32:00,72.0,36.0,-100.00,NW,326,7.0,12.0,27,-99.99,,,-99.99,52.040001,,2013-03-13 00:32:00,
2013-03-12 17:42:00,71.0,39.0,-100.00,NW,306,4.0,7.0,31,-99.99,,,-99.99,0.000000,,2013-03-13 00:42:00,
2013-03-12 17:52:00,71.0,40.0,-100.00,WNW,298,5.0,7.0,32,-99.99,,,-99.99,0.000000,,2013-03-13 00:52:00,
2013-03-12 18:02:00,70.0,40.0,-100.00,NW,304,7.0,9.0,33,-99.99,,,-99.99,0.000000,,2013-03-13 01:02:00,
2013-03-12 18:12:00,69.0,39.0,-100.00,WNW,303,6.0,8.0,34,-99.99,,,-99.99,0.000000,,2013-03-13 01:12:00,
2013-03-12 18:22:00,70.0,40.0,-100.00,NW,304,6.0,8.0,34,-99.99,,,-99.99,0.000000,,2013-03-13 01:22:00,
2013-03-12 18:32:00,70.0,40.0,-100.00,NW,323,3.0,6.0,34,-99.99,,,-99.99,0.000000,,2013-03-13 01:32:00,
2013-03-12 18:42:00,70.0,40.0,-100.00,WNW,299,4.0,6.0,33,-99.99,,,-99.99,0.000000,,2013-03-13 01:42:00,
2013-03-12 18:52:00,69.0,39.0,-100.00,NW,312,3.0,5.0,34,-99.99,,,-99.99,0.000000,,2013-03-13 01:52:00,
2013-03-12 19:02:00,68.0,40.0,-100.00,WNW,288,3.0,6.0,36,-99.99,,,-99.99,0.000000,,2013-03-13 02:02:00,
2013-03-12 19:12:00,67.0,39.0,-100.00,NW,320,4.0,6.0,36,-99.99,,,-99.99,0.000000,,2013-03-13 02:12:00,
2013-03-12 19:22:00,66.0,38.0,-100.00,NW,316,2.0,4.0,35,-99.99,,,-99.99,0.000000,,2013-03-13 02:22:00,
2013-03-12 19:31:00,65.0,36.0,-100.00,North,358,2.0,3.0,34,-99.99,,,-99.99,0.000000,,2013-03-13 02:31:00,
2013-03-12 19:42:00,65.0,36.0,-100.00,North,11,3.0,5.0,34,-99.99,,,-99.99,0.000000,,2013-03-13 02:42:00,
2013-03-12 19:52:00,63.0,38.0,-100.00,East,79,4.0,6.0,39,-99.99,,,-99.99,0.000000,,2013-03-13 02:52:00,
2013-03-12 20:01:00,63.0,38.0,-100.00,East,79,4.0,6.0,39,-99.99,,,-99.99,0.000000,,2013-03-13 03:01:00,
2013-03-12 20:12:00,61.0,38.0,-100.00,ESE,112,4.0,5.0,43,-99.99,,,-99.99,0.000000,,2013-03-13 03:12:00,
2013-03-12 20:21:00,62.0,35.0,-100.00,East,99,4.0,5.0,37,-99.99,,,-99.99,0.000000,,2013-03-13 03:21:00,
2013-03-12 20:32:00,62.0,32.0,-100.00,East,101,3.0,5.0,32,-99.99,,,-99.99,0.000000,,2013-03-13 03:32:00,
2013-03-12 20:42:00,60.0,28.0,-100.00,SE,134,4.0,7.0,29,-99.99,,,-99.99,0.000000,,2013-03-13 03:42:00,
2013-03-12 20:52:00,61.0,26.0,-100.00,SE,136,3.0,5.0,26,-99.99,,,-99.99,0.000000,,2013-03-13 03:52:00,
2013-03-12 21:02:00,60.0,27.0,-100.00,SE,129,5.0,7.0,28,-99.99,,,-99.99,0.000000,,2013-03-13 04:02:00,
2013-03-12 21:12:00,60.0,27.0,-100.00,ESE,104,5.0,7.0,28,-99.99,,,-99.99,0.000000,,2013-03-13 04:12:00,
2013-03-12 21:22:00,62.0,27.0,-100.00,East,85,4.0,8.0,26,-99.99,,,-99.99,0.000000,,2013-03-13 04:22:00,
2013-03-12 21:31:00,61.0,29.0,-100.00,ESE,107,2.0,6.0,29,-99.99,,,-99.99,0.000000,,2013-03-13 04:31:00,
2013-03-12 21:42:00,61.0,29.0,-100.00,ESE,107,2.0,6.0,29,-99.99,,,-99.99,0.000000,,2013-03-13 04:42:00,
2013-03-12 21:52:00,60.0,30.0,-100.00,East,87,3.0,8.0,32,-99.99,,,-99.99,0.000000,,2013-03-13 04:52:00,
2013-03-12 22:02:00,62.0,30.0,-100.00,East,95,2.0,6.0,30,-99.99,,,-99.99,0.000000,,2013-03-13 05:02:00,
2013-03-12 22:12:00,64.0,30.0,-100.00,ENE,62,2.0,9.0,28,-99.99,,,-99.99,0.000000,,2013-03-13 05:12:00,
2013-03-12 22:22:00,64.0,26.0,-100.00,ENE,77,3.0,6.0,24,-99.99,,,-99.99,0.000000,,2013-03-13 05:22:00,
2013-03-12 22:32:00,62.0,26.0,-100.00,South,181,1.0,4.0,25,-99.99,,,-99.99,0.000000,,2013-03-13 05:32:00,
2013-03-12 22:42:00,60.0,26.0,-100.00,ESE,120,4.0,10.0,27,-99.99,,,-99.99,0.000000,,2013-03-13 05:42:00,
2013-03-12 22:52:00,59.0,26.0,-100.00,SE,129,8.0,11.0,28,-99.99,,,-99.99,0.000000,,2013-03-13 05:52:00,
2013-03-12 23:02:00,58.0,26.0,-100.00,SE,130,8.0,11.0,29,-99.99,,,-99.99,0.000000,,2013-03-13 06:02:00,
2013-03-12 23:12:00,61.0,26.0,-100.00,SE,126,7.0,11.0,26,-99.99,,,-99.99,0.000000,,2013-03-13 06:12:00,
2013-03-12 23:22:00,59.0,26.0,-100.00,SE,139,5.0,9.0,28,-99.99,,,-99.99,0.000000,,2013-03-13 06:22:00,
2013-03-12 23:32:00,59.0,25.0,-100.00,SE,129,8.0,13.0,27,-99.99,,,-99.99,0.000000,,2013-03-13 06:32:00,
2013-03-12 23:42:00,63.0,24.0,-100.00,ESE,109,11.0,16.0,22,-99.99,,,-99.99,0.000000,,2013-03-13 06:42:00,
2013-03-12 23:52:00,64.0,24.0,-100.00,ESE,109,10.0,14.0,22,-99.99,,,-99.99,0.000000,,2013-03-13 06:52:00,